createdAt,value
2019-01-25T00:04:59.774Z,69
2019-01-25T00:10:00.229Z,68
2019-01-25T00:15:01.302Z,70
2019-01-25T00:20:00.279Z,70
2019-01-25T00:25:00.363Z,71
2019-01-25T00:29:59.889Z,65
2019-01-25T00:34:59.736Z,74
2019-01-25T00:40:05.988Z,69
2019-01-25T00:44:59.712Z,66
2019-01-25T00:49:59.951Z,64
2019-01-25T00:54:59.937Z,65
2019-01-25T01:00:00.329Z,70
2019-01-25T01:05:00.210Z,62
2019-01-25T01:10:00.005Z,68
2019-01-25T01:15:00.048Z,67
2019-01-25T01:19:59.984Z,67
2019-01-25T01:24:59.828Z,64
2019-01-25T01:29:59.901Z,67
2019-01-25T01:34:59.922Z,65
2019-01-25T01:40:00.002Z,54
2019-01-25T01:44:59.902Z,71
2019-01-25T01:49:59.861Z,72
2019-01-25T01:54:59.959Z,66
2019-01-25T02:01:38.667Z,63
2019-01-25T02:04:59.792Z,64
2019-01-25T02:09:59.963Z,67
2019-01-25T02:15:00.209Z,65
2019-01-25T02:19:59.852Z,62
2019-01-25T02:24:59.793Z,70
2019-01-25T02:29:59.878Z,60
2019-01-25T02:34:59.883Z,71
2019-01-25T02:40:00.285Z,69
2019-01-25T02:45:00.290Z,67
2019-01-25T02:49:59.811Z,71
2019-01-25T02:54:59.876Z,69
2019-01-25T03:00:43.645Z,70
2019-01-25T03:04:59.796Z,73
2019-01-25T03:09:59.645Z,69
2019-01-25T03:14:59.977Z,67
2019-01-25T03:19:59.764Z,69
2019-01-25T03:24:59.358Z,60
2019-01-25T03:30:00.628Z,66
2019-01-25T03:35:00.439Z,71
2019-01-25T03:39:59.999Z,66
2019-01-25T03:44:59.429Z,67
2019-01-25T03:49:59.663Z,62
2019-01-25T03:55:00.505Z,68
2019-01-25T03:59:59.729Z,71
2019-01-25T04:04:59.394Z,67
2019-01-25T04:09:59.510Z,74
2019-01-25T04:14:59.779Z,72
2019-01-25T04:20:00.030Z,65
2019-01-25T04:24:59.518Z,68
2019-01-25T04:29:59.756Z,69
2019-01-25T04:50:07.605Z,64
2019-01-25T04:55:01.740Z,65
2019-01-25T05:00:02.280Z,65
2019-01-25T05:05:01.386Z,67
2019-01-25T05:10:01.299Z,63
2019-01-25T05:15:01.698Z,64
2019-01-25T05:20:00.989Z,64
2019-01-25T05:25:01.206Z,58
2019-01-25T05:30:01.600Z,62
2019-01-25T05:35:01.073Z,60
2019-01-25T05:40:01.772Z,66
2019-01-25T05:45:01.376Z,65
2019-01-25T05:50:01.409Z,70
2019-01-25T05:55:01.458Z,64
2019-01-25T06:00:01.481Z,62
2019-01-25T06:05:01.084Z,62
2019-01-25T06:10:01.583Z,67
2019-01-25T06:15:01.517Z,67
2019-01-25T06:20:01.049Z,57
2019-01-25T06:25:01.202Z,59
2019-01-25T06:30:01.311Z,63
2019-01-25T06:35:00.826Z,59
2019-01-25T06:40:01.079Z,66
2019-01-25T06:45:01.074Z,65
2019-01-25T06:50:01.158Z,71
2019-01-25T06:55:01.499Z,65
2019-01-25T07:00:01.306Z,36
2019-01-25T07:05:00.995Z,61
2019-01-25T07:10:00.755Z,73
2019-01-25T07:15:00.897Z,70
2019-01-25T07:20:00.779Z,75
2019-01-25T07:25:00.603Z,65
2019-01-25T07:30:00.991Z,67
2019-01-25T07:35:00.855Z,69
2019-01-25T07:40:00.654Z,69
2019-01-25T07:45:00.865Z,64
2019-01-25T07:50:01.106Z,74
2019-01-25T07:55:00.721Z,61
2019-01-25T08:00:01.018Z,71
2019-01-25T08:05:00.838Z,72
2019-01-25T08:10:00.864Z,66
2019-01-25T08:15:01.002Z,72
2019-01-25T08:20:00.796Z,69
2019-01-25T08:25:00.733Z,70
2019-01-25T08:30:00.826Z,66
2019-01-25T08:35:01.064Z,69
2019-01-25T08:40:00.798Z,74
2019-01-25T08:45:01.188Z,69
2019-01-25T08:50:00.890Z,74
2019-01-25T08:55:00.717Z,72
2019-01-25T09:01:38.137Z,69
2019-01-25T09:05:00.786Z,70
2019-01-25T09:10:00.770Z,68
2019-01-25T09:15:00.476Z,65
2019-01-25T09:20:00.698Z,71
2019-01-25T09:25:00.782Z,65
2019-01-25T09:30:00.738Z,70
2019-01-25T09:35:00.451Z,72
2019-01-25T09:40:00.486Z,71
2019-01-25T09:45:00.957Z,78
2019-01-25T09:50:00.580Z,70
2019-01-25T09:55:00.617Z,70
2019-01-25T10:00:00.473Z,71
2019-01-25T10:05:00.487Z,71
2019-01-25T10:10:00.515Z,69
2019-01-25T10:15:00.741Z,77
2019-01-25T10:20:00.409Z,69
2019-01-25T10:25:00.461Z,67
2019-01-25T10:30:00.547Z,49
2019-01-25T10:35:00.519Z,62
2019-01-25T10:40:00.473Z,66
2019-01-25T10:45:04.449Z,60
2019-01-25T10:50:00.673Z,60
2019-01-25T10:55:00.306Z,59
2019-01-25T11:00:00.600Z,48
2019-01-25T11:05:00.606Z,49
2019-01-25T11:10:00.673Z,55
2019-01-25T11:15:01.506Z,50
2019-01-25T11:20:00.691Z,53
2019-01-25T11:25:00.401Z,54
2019-01-25T11:30:00.672Z,51
2019-01-25T11:35:00.589Z,55
2019-01-25T11:40:00.513Z,46
2019-01-25T11:45:00.668Z,58
2019-01-25T11:50:00.444Z,59
2019-01-25T11:55:00.595Z,59
2019-01-25T12:00:00.751Z,51
2019-01-25T12:05:00.317Z,62
2019-01-25T12:10:00.355Z,55
2019-01-25T12:15:00.507Z,55
2019-01-25T12:20:00.599Z,60
2019-01-25T12:25:00.386Z,61
2019-01-25T12:30:00.529Z,58
2019-01-25T12:35:01.593Z,64
2019-01-25T12:40:00.691Z,58
2019-01-25T12:45:00.355Z,64
2019-01-25T12:50:00.630Z,61
2019-01-25T12:55:00.520Z,63
2019-01-25T13:00:00.365Z,53
2019-01-25T13:05:00.384Z,65
2019-01-25T13:10:00.304Z,51
2019-01-25T13:15:00.364Z,68
2019-01-25T13:20:00.436Z,54
2019-01-25T13:25:00.609Z,60
2019-01-25T13:30:00.607Z,50
2019-01-25T13:35:00.332Z,54
2019-01-25T13:40:00.375Z,57
2019-01-25T13:45:00.583Z,57
2019-01-25T13:50:00.552Z,57
2019-01-25T13:55:00.425Z,60
2019-01-25T14:00:00.933Z,52
2019-01-25T14:05:00.313Z,53
2019-01-25T14:10:00.433Z,54
2019-01-25T14:15:00.560Z,57
2019-01-25T14:20:00.465Z,60
2019-01-25T14:25:00.611Z,57
2019-01-25T14:30:00.489Z,54
2019-01-25T14:35:00.287Z,59
2019-01-25T14:40:00.439Z,57
2019-01-25T14:45:00.546Z,64
2019-01-25T14:50:01.038Z,56
2019-01-25T14:55:00.368Z,54
2019-01-25T15:00:00.769Z,54
2019-01-25T15:05:00.281Z,57
2019-01-25T15:10:00.275Z,60
2019-01-25T15:15:00.342Z,65
2019-01-25T15:20:00.385Z,53
2019-01-25T15:25:00.356Z,54
2019-01-25T15:30:00.544Z,57
2019-01-25T15:35:00.322Z,59
2019-01-25T15:40:00.495Z,58
2019-01-25T15:45:00.241Z,55
2019-01-25T15:50:00.323Z,65
2019-01-25T15:55:00.245Z,57
2019-01-25T16:00:00.395Z,59
2019-01-25T16:05:00.472Z,59
2019-01-25T16:10:00.193Z,64
2019-01-25T16:15:00.719Z,61
2019-01-25T16:20:00.362Z,58
2019-01-25T16:25:00.183Z,59
2019-01-25T16:30:00.195Z,60
2019-01-25T16:35:00.303Z,60
2019-01-25T16:40:02.652Z,51
2019-01-25T16:45:00.228Z,60
2019-01-25T16:50:00.246Z,58
2019-01-25T16:55:00.328Z,57
2019-01-25T17:00:00.521Z,52
2019-01-25T17:05:00.417Z,50
2019-01-25T17:10:00.425Z,51
2019-01-25T17:15:00.185Z,57
2019-01-25T17:20:00.009Z,51
2019-01-25T17:25:00.245Z,53
2019-01-25T17:30:00.266Z,47
2019-01-25T17:35:00.054Z,52
2019-01-25T17:39:59.741Z,37
2019-01-25T17:45:00.261Z,45
2019-01-25T17:50:00.051Z,50
2019-01-25T17:54:59.884Z,48
2019-01-25T18:00:00.260Z,47
2019-01-25T18:05:00.240Z,41
2019-01-25T18:10:00.340Z,42
2019-01-25T18:15:00.405Z,44
2019-01-25T18:20:00.281Z,44
2019-01-25T18:24:59.781Z,38
2019-01-25T18:30:00.222Z,47
2019-01-25T18:34:59.707Z,42
2019-01-25T18:40:00.180Z,48
2019-01-25T18:45:00.192Z,44
2019-01-25T18:50:00.204Z,43
2019-01-25T18:54:59.876Z,40
2019-01-25T19:00:00.186Z,41
2019-01-25T19:05:00.324Z,35
2019-01-25T19:10:01.349Z,46
2019-01-25T19:15:04.253Z,44
2019-01-25T19:22:16.244Z,43
2019-01-25T19:25:00.053Z,43
2019-01-25T19:30:00.303Z,43
2019-01-25T19:34:59.771Z,44
2019-01-25T19:39:59.989Z,48
2019-01-25T19:45:00.027Z,43
2019-01-25T19:50:00.244Z,45
2019-01-25T19:55:02.575Z,46
2019-01-25T20:00:01.132Z,53
2019-01-25T20:05:00.436Z,49
2019-01-25T20:10:00.239Z,53
2019-01-25T20:15:00.259Z,50
2019-01-25T20:20:00.004Z,50
2019-01-25T20:24:59.923Z,55
2019-01-25T20:30:00.178Z,55
2019-01-25T20:34:59.918Z,54
2019-01-25T20:39:59.990Z,59
2019-01-25T20:45:00.033Z,55
2019-01-25T20:50:00.226Z,53
2019-01-25T20:54:59.870Z,55
2019-01-25T21:00:00.298Z,56
2019-01-25T21:04:59.780Z,53
2019-01-25T21:10:00.275Z,57
2019-01-25T21:14:59.835Z,40
2019-01-25T21:20:00.033Z,59
2019-01-25T21:25:00.262Z,52
2019-01-25T21:29:59.980Z,57
2019-01-25T21:34:59.850Z,54
2019-01-25T21:40:04.064Z,60
2019-01-25T21:45:00.544Z,53
2019-01-25T21:50:00.195Z,48
2019-01-25T21:54:59.558Z,50
2019-01-25T22:00:00.626Z,52
2019-01-25T22:04:59.941Z,47
2019-01-25T22:10:00.229Z,49
2019-01-25T22:14:59.776Z,42
2019-01-25T22:20:00.463Z,45
2019-01-25T22:24:59.884Z,43
2019-01-25T22:29:59.851Z,40
2019-01-25T22:34:59.625Z,37
2019-01-25T22:39:59.669Z,33
2019-01-25T22:44:59.413Z,32
2019-01-25T22:49:59.560Z,31
2019-01-25T22:54:59.686Z,32
2019-01-25T22:59:59.658Z,32
2019-01-25T23:04:59.776Z,28
2019-01-25T23:09:59.860Z,26
2019-01-25T23:15:00.033Z,25
2019-01-25T23:19:59.766Z,25
2019-01-25T23:24:59.911Z,20
2019-01-25T23:29:59.749Z,19
2019-01-25T23:34:59.553Z,22
2019-01-25T23:39:59.889Z,19
2019-01-25T23:44:59.610Z,20
2019-01-25T23:49:59.683Z,21
2019-01-25T23:54:59.874Z,20
2019-01-25T23:59:59.574Z,17
